aviador You're here:

KPOB Decoded Metar

FAYETTEVILLE in NC, USA
Report Time2017-07-23 05:58:00
UTC Time2017-07-23 06:52:34
Flight Rules vfr VFR
Wind240° at 09 kt
W.Decomp.*RWY 23: 8.6 kt HW 2.6 kt RCW
W.Rank240° ranks 1
Current wind is above 240° avg. (7.4)
Visibility9999 m
Phenomena:N/A
Clouds:N/A
Expected CloudBase > 1,600 ft AGL from Temp-Dew spread
CeilingNone
Temp27°C (ISA +12)
Dew Point23°C (79% RH)
Heat Index29.6°C
QNH1012 hPa
Density Alt2,054 ft
Elevation217 ft
Report Wrong Elevation
Raw Report
KPOB 230558Z AUTO 24009KT 10SM CLR 27/23 A2988 RMK AO2 SLP119
T02720231 10323 20272 58002 $=

Extra information for KPOB:More info

Metar Taf Metar & Taf Last 4 Metars F.Rules Stats Wind Profile Meteogram Temp Stats Airport Information Weather charts Add Link Nearby VenuesMetar ALERT Operation Metar Decoded Social comments

AIRNAV info for KPOB